createdAt,value
2018-06-11T00:01:06.039Z,15.70
2018-06-11T00:03:33.515Z,15.60
2018-06-11T00:06:00.837Z,15.60
2018-06-11T00:08:28.148Z,15.60
2018-06-11T00:10:55.513Z,15.50
2018-06-11T00:13:22.817Z,15.50
2018-06-11T00:15:50.213Z,15.40
2018-06-11T00:18:17.521Z,15.40
2018-06-11T00:20:44.853Z,15.30
2018-06-11T00:23:12.189Z,15.20
2018-06-11T00:25:39.497Z,15.30
2018-06-11T00:28:06.813Z,15.20
2018-06-11T00:30:34.127Z,15.20
2018-06-11T00:33:01.463Z,15.20
2018-06-11T00:35:29.174Z,15.20
2018-06-11T00:37:56.493Z,15.20
2018-06-11T00:40:23.825Z,15.10
2018-06-11T00:42:51.157Z,15.10
2018-06-11T00:45:18.478Z,15.10
2018-06-11T00:47:45.937Z,15.10
2018-06-11T00:50:13.256Z,15.00
2018-06-11T00:52:40.571Z,14.90
2018-06-11T00:55:07.905Z,14.90
2018-06-11T00:57:35.221Z,14.80
2018-06-11T01:00:02.709Z,14.90
2018-06-11T01:02:30.017Z,14.90
2018-06-11T01:04:57.361Z,14.90
2018-06-11T01:07:24.689Z,14.90
2018-06-11T01:09:52.020Z,14.80
2018-06-11T01:12:19.350Z,14.70
2018-06-11T01:14:46.656Z,14.60
2018-06-11T01:17:14.001Z,14.50
2018-06-11T01:19:41.313Z,14.50
2018-06-11T01:22:08.662Z,14.50
2018-06-11T01:24:35.997Z,14.40
2018-06-11T01:27:03.410Z,14.30
2018-06-11T01:29:30.740Z,14.30
2018-06-11T01:31:58.080Z,14.20
2018-06-11T01:34:25.641Z,14.20
2018-06-11T01:36:52.973Z,14.20
2018-06-11T01:39:20.292Z,14.30
2018-06-11T01:41:47.629Z,14.30
2018-06-11T01:44:14.946Z,14.30
2018-06-11T01:46:42.289Z,14.30
2018-06-11T01:49:09.649Z,14.20
2018-06-11T01:51:36.965Z,14.30
2018-06-11T01:54:04.325Z,14.40
2018-06-11T01:56:31.662Z,14.30
2018-06-11T01:58:59.013Z,14.40
2018-06-11T02:01:26.698Z,14.40
2018-06-11T02:03:54.001Z,14.40
2018-06-11T02:06:21.330Z,14.40
2018-06-11T02:08:48.653Z,14.50
2018-06-11T02:11:15.991Z,14.50
2018-06-11T02:13:43.290Z,14.60
2018-06-11T02:16:10.593Z,14.50
2018-06-11T02:18:37.917Z,14.50
2018-06-11T02:21:05.237Z,14.60
2018-06-11T02:23:32.653Z,14.50
2018-06-11T02:25:59.957Z,14.50
2018-06-11T02:28:27.298Z,14.50
2018-06-11T02:30:54.654Z,14.60
2018-06-11T02:33:21.973Z,14.70
2018-06-11T02:35:49.298Z,14.70
2018-06-11T02:38:16.693Z,14.70
2018-06-11T02:40:44.014Z,14.70
2018-06-11T02:43:11.550Z,14.70
2018-06-11T02:45:38.889Z,14.70
2018-06-11T02:48:06.314Z,14.70
2018-06-11T02:50:33.677Z,14.60
2018-06-11T02:53:00.985Z,14.70
2018-06-11T02:55:28.325Z,14.70
2018-06-11T02:57:55.674Z,14.70
2018-06-11T03:00:23.001Z,14.80
2018-06-11T03:02:50.365Z,14.80
2018-06-11T03:05:17.691Z,14.80
2018-06-11T03:07:45.042Z,14.70
2018-06-11T03:10:12.358Z,14.70
2018-06-11T03:12:39.840Z,14.70
2018-06-11T03:15:07.154Z,14.80
2018-06-11T03:17:34.520Z,14.80
2018-06-11T03:20:01.976Z,14.90
2018-06-11T03:22:29.278Z,14.90
2018-06-11T03:24:56.605Z,14.90
2018-06-11T03:27:24.269Z,14.90
2018-06-11T03:29:51.576Z,14.90
2018-06-11T03:32:18.885Z,14.90
2018-06-11T03:34:46.225Z,14.90
2018-06-11T03:37:13.808Z,15.00
2018-06-11T03:39:41.123Z,14.90
2018-06-11T03:42:08.452Z,15.00
2018-06-11T03:44:35.796Z,15.00
2018-06-11T03:47:03.408Z,15.00
2018-06-11T03:49:30.922Z,15.10
2018-06-11T03:51:58.224Z,15.10
2018-06-11T03:54:25.562Z,15.10
2018-06-11T03:56:52.930Z,15.10
2018-06-11T03:59:20.253Z,15.10
2018-06-11T04:01:47.599Z,15.10
2018-06-11T04:04:15.027Z,15.10
2018-06-11T04:06:42.373Z,15.20
2018-06-11T04:09:09.706Z,15.20
2018-06-11T04:11:37.061Z,15.20
2018-06-11T04:14:04.409Z,15.10
2018-06-11T04:16:31.746Z,15.10
2018-06-11T04:18:59.059Z,15.10
2018-06-11T04:21:26.366Z,15.10
2018-06-11T04:23:53.788Z,15.20
2018-06-11T04:26:21.141Z,15.20
2018-06-11T04:28:48.447Z,15.10
2018-06-11T04:31:15.821Z,15.10
2018-06-11T04:33:43.258Z,15.20
2018-06-11T04:36:10.611Z,15.20
2018-06-11T04:38:37.912Z,15.20
2018-06-11T04:41:05.333Z,15.20
2018-06-11T04:43:32.718Z,15.20
2018-06-11T04:46:00.024Z,15.20
2018-06-11T04:48:27.418Z,15.30
2018-06-11T04:50:54.756Z,15.40
2018-06-11T04:53:22.109Z,15.50
2018-06-11T04:55:49.507Z,15.50
2018-06-11T04:58:16.866Z,15.50
2018-06-11T05:00:44.185Z,15.60
2018-06-11T05:03:11.517Z,15.60
2018-06-11T05:05:38.853Z,15.60
2018-06-11T05:08:06.321Z,15.60
2018-06-11T05:10:33.637Z,15.60
2018-06-11T05:13:01.018Z,15.60
2018-06-11T05:15:28.349Z,15.60
2018-06-11T05:17:55.652Z,15.50
2018-06-11T05:20:23.014Z,15.50
2018-06-11T05:22:50.407Z,15.50
2018-06-11T05:25:17.725Z,15.60
2018-06-11T05:27:45.049Z,15.70
2018-06-11T05:30:12.389Z,15.80
2018-06-11T05:32:39.753Z,15.90
2018-06-11T05:35:07.194Z,16.00
2018-06-11T05:37:34.508Z,16.00
2018-06-11T05:40:01.834Z,16.00
2018-06-11T05:42:29.133Z,16.00
2018-06-11T05:44:56.466Z,15.90
2018-06-11T05:47:23.814Z,15.80
2018-06-11T05:49:51.139Z,15.90
2018-06-11T05:54:45.837Z,16.00
2018-06-11T05:57:13.189Z,16.10
2018-06-11T05:59:40.505Z,16.20
2018-06-11T06:02:07.833Z,16.30
2018-06-11T06:04:35.161Z,16.30
2018-06-11T06:07:02.509Z,16.40
2018-06-11T06:09:29.809Z,16.50
2018-06-11T06:11:57.183Z,16.60
2018-06-11T06:14:24.657Z,16.60
2018-06-11T06:16:51.997Z,16.60
2018-06-11T06:19:19.317Z,16.70
2018-06-11T06:21:46.648Z,16.80
2018-06-11T06:26:41.372Z,16.90
2018-06-11T06:29:08.681Z,17.00
2018-06-11T06:31:36.011Z,17.10
2018-06-11T06:34:03.440Z,17.00
2018-06-11T06:38:58.546Z,17.10
2018-06-11T06:41:25.897Z,17.20
2018-06-11T06:43:53.285Z,17.30
2018-06-11T06:46:20.976Z,17.40
2018-06-11T06:48:48.285Z,17.40
2018-06-11T06:51:15.593Z,17.30
2018-06-11T06:53:42.978Z,17.40
2018-06-11T06:56:10.291Z,17.40
2018-06-11T06:58:37.613Z,17.50
2018-06-11T07:01:05.390Z,17.60
2018-06-11T07:03:32.765Z,17.50
2018-06-11T07:06:00.102Z,17.60
2018-06-11T07:08:27.461Z,17.70
2018-06-11T07:10:54.841Z,17.80
2018-06-11T07:13:22.166Z,17.70
2018-06-11T07:15:49.537Z,17.60
2018-06-11T07:18:17.045Z,17.60
2018-06-11T07:20:44.394Z,17.80
2018-06-11T07:23:11.749Z,17.90
2018-06-11T07:25:39.073Z,17.90
2018-06-11T07:28:06.484Z,17.90
2018-06-11T07:30:33.837Z,18.00
2018-06-11T07:33:01.190Z,17.80
2018-06-11T07:35:28.514Z,17.80
2018-06-11T07:37:55.933Z,17.90
2018-06-11T07:40:23.368Z,18.00
2018-06-11T07:42:50.693Z,18.10
2018-06-11T07:45:18.022Z,18.20
2018-06-11T07:47:45.399Z,18.20
2018-06-11T07:50:12.782Z,18.20
2018-06-11T07:52:40.153Z,18.40
2018-06-11T07:55:07.466Z,18.40
2018-06-11T07:57:34.868Z,18.40
2018-06-11T08:00:02.281Z,18.40
2018-06-11T08:02:29.578Z,18.40
2018-06-11T08:04:56.901Z,18.50
2018-06-11T08:07:24.597Z,18.50
2018-06-11T08:09:52.007Z,18.40
2018-06-11T08:12:19.322Z,18.40
2018-06-11T08:14:46.754Z,18.40
2018-06-11T08:17:14.138Z,18.30
2018-06-11T08:19:41.483Z,18.30
2018-06-11T08:22:08.821Z,18.40
2018-06-11T08:24:36.131Z,18.40
2018-06-11T08:27:03.445Z,18.40
2018-06-11T08:29:30.764Z,18.40
2018-06-11T08:31:58.157Z,18.50
2018-06-11T08:34:25.477Z,18.40
2018-06-11T08:39:20.269Z,18.40
2018-06-11T08:41:47.579Z,18.40
2018-06-11T08:44:14.897Z,18.50
2018-06-11T08:46:42.265Z,18.40
2018-06-11T08:49:09.654Z,18.30
2018-06-11T08:51:37.016Z,18.40
2018-06-11T08:54:04.482Z,18.50
2018-06-11T08:56:31.834Z,18.60
2018-06-11T08:58:59.207Z,18.70
2018-06-11T09:01:26.549Z,18.70
2018-06-11T09:03:53.914Z,18.70
2018-06-11T09:06:21.340Z,18.80
2018-06-11T09:08:48.698Z,18.80
2018-06-11T09:11:16.009Z,18.80
2018-06-11T09:13:43.360Z,18.80
2018-06-11T09:18:38.037Z,18.70
2018-06-11T09:21:05.386Z,18.70
2018-06-11T09:23:32.705Z,18.80
2018-06-11T09:26:00.257Z,18.80
2018-06-11T09:28:27.601Z,19.10
2018-06-11T09:30:54.925Z,19.20
2018-06-11T09:33:22.261Z,19.40
2018-06-11T09:35:49.842Z,19.50
2018-06-11T09:38:17.211Z,19.40
2018-06-11T09:40:44.513Z,19.70
2018-06-11T09:43:11.889Z,19.80
2018-06-11T09:45:39.226Z,19.60
2018-06-11T09:48:06.633Z,19.70
2018-06-11T09:50:33.986Z,19.50
2018-06-11T09:53:01.341Z,19.70
2018-06-11T09:55:28.705Z,19.90
2018-06-11T09:57:56.019Z,19.80
2018-06-11T10:00:29.046Z,19.80
2018-06-11T10:02:56.366Z,20.10
2018-06-11T10:05:23.733Z,20.40
2018-06-11T10:07:51.114Z,20.40
2018-06-11T10:10:18.421Z,20.40
2018-06-11T10:12:46.273Z,20.50
2018-06-11T10:15:13.625Z,20.60
2018-06-11T10:17:40.949Z,20.50
2018-06-11T10:20:08.269Z,20.10
2018-06-11T10:22:35.577Z,20.10
2018-06-11T10:25:02.953Z,20.00
2018-06-11T10:27:30.301Z,20.00
2018-06-11T10:29:57.625Z,19.80
2018-06-11T10:32:24.998Z,20.10
2018-06-11T10:34:52.360Z,20.20
2018-06-11T10:37:19.666Z,20.10
2018-06-11T10:39:47.014Z,19.60
2018-06-11T10:42:14.435Z,19.70
2018-06-11T10:44:41.817Z,20.10
2018-06-11T10:47:09.177Z,20.20
2018-06-11T10:49:36.550Z,20.50
2018-06-11T10:52:03.949Z,20.80
2018-06-11T10:54:31.348Z,20.60
2018-06-11T10:56:58.693Z,20.50
2018-06-11T10:59:26.210Z,20.50
2018-06-11T11:01:53.547Z,20.40
2018-06-11T11:04:20.852Z,20.60
2018-06-11T11:06:48.374Z,20.40
2018-06-11T11:09:15.743Z,20.50
2018-06-11T11:11:43.119Z,20.70
2018-06-11T11:14:10.538Z,20.70
2018-06-11T11:16:37.878Z,20.80
2018-06-11T11:19:05.325Z,21.00
2018-06-11T11:21:32.646Z,21.00
2018-06-11T11:24:00.036Z,21.20
2018-06-11T11:26:27.374Z,21.40
2018-06-11T11:28:54.762Z,21.50
2018-06-11T11:31:22.169Z,21.50
2018-06-11T11:33:49.609Z,21.60
2018-06-11T11:36:16.864Z,21.40
2018-06-11T11:38:44.305Z,21.10
2018-06-11T11:41:11.641Z,21.20
2018-06-11T11:43:39.026Z,20.90
2018-06-11T11:46:06.470Z,20.70
2018-06-11T11:48:33.837Z,20.80
2018-06-11T11:51:01.362Z,21.00
2018-06-11T11:53:28.648Z,21.10
2018-06-11T11:55:55.977Z,21.50
2018-06-11T11:58:23.309Z,21.90
2018-06-11T12:00:50.758Z,22.00
2018-06-11T12:03:18.097Z,21.90
2018-06-11T12:05:45.461Z,21.90
2018-06-11T12:08:12.810Z,21.80
2018-06-11T12:10:40.187Z,21.80
2018-06-11T12:13:07.688Z,21.80
2018-06-11T12:15:35.060Z,21.90
2018-06-11T12:18:02.412Z,22.20
2018-06-11T12:20:29.817Z,22.20
2018-06-11T12:23:01.670Z,22.30
2018-06-11T12:25:28.993Z,22.50
2018-06-11T12:27:56.341Z,22.70
2018-06-11T12:30:23.694Z,22.60
2018-06-11T12:32:51.073Z,22.50
2018-06-11T12:35:18.430Z,22.70
2018-06-11T12:37:45.764Z,22.80
2018-06-11T12:40:13.098Z,22.70
2018-06-11T12:42:40.468Z,22.80
2018-06-11T12:45:07.853Z,22.80
2018-06-11T12:47:35.317Z,22.90
2018-06-11T12:50:02.662Z,22.70
2018-06-11T12:52:30.010Z,22.70
2018-06-11T12:54:57.345Z,22.90
2018-06-11T12:57:24.734Z,22.80
2018-06-11T12:59:52.213Z,22.90
2018-06-11T13:02:19.553Z,22.80
2018-06-11T13:04:46.897Z,22.70
2018-06-11T13:07:14.369Z,22.80
2018-06-11T13:09:41.690Z,22.90
2018-06-11T13:12:09.138Z,22.70
2018-06-11T13:14:36.549Z,22.50
2018-06-11T13:17:04.074Z,22.40
2018-06-11T13:19:31.421Z,22.60
2018-06-11T13:21:58.813Z,22.80
2018-06-11T13:24:26.641Z,22.80
2018-06-11T13:26:54.032Z,22.80
2018-06-11T13:29:21.355Z,22.80
2018-06-11T13:31:48.693Z,22.70
2018-06-11T13:34:16.049Z,22.60
2018-06-11T13:36:43.790Z,22.20
2018-06-11T13:39:11.962Z,22.30
2018-06-11T13:41:39.301Z,22.40
2018-06-11T13:44:06.641Z,22.50
2018-06-11T13:46:34.081Z,22.70
2018-06-11T13:49:01.602Z,22.80
2018-06-11T13:51:29.061Z,22.90
2018-06-11T13:53:56.483Z,23.10
2018-06-11T13:56:23.902Z,22.80
2018-06-11T13:58:51.290Z,22.70
2018-06-11T14:01:18.671Z,22.80
2018-06-11T14:03:46.017Z,22.90
2018-06-11T14:06:13.410Z,23.00
2018-06-11T14:08:40.819Z,23.00
2018-06-11T14:11:08.194Z,22.70
2018-06-11T14:13:35.569Z,22.70
2018-06-11T14:16:02.961Z,22.30
2018-06-11T14:18:30.325Z,22.40
2018-06-11T14:20:57.697Z,22.20
2018-06-11T14:23:25.113Z,22.30
2018-06-11T14:25:52.560Z,22.40
2018-06-11T14:28:19.919Z,22.40
2018-06-11T14:30:47.261Z,22.40
2018-06-11T14:33:14.630Z,22.30
2018-06-11T14:35:42.013Z,22.30
2018-06-11T14:38:09.446Z,22.40
2018-06-11T14:40:36.796Z,22.20
2018-06-11T14:43:04.166Z,22.10
2018-06-11T14:45:31.529Z,22.10
2018-06-11T14:47:58.891Z,22.10
2018-06-11T14:50:26.285Z,22.20
2018-06-11T14:52:53.826Z,22.30
2018-06-11T14:55:21.236Z,22.10
2018-06-11T14:57:48.738Z,22.10
2018-06-11T15:00:16.099Z,22.00
2018-06-11T15:02:43.457Z,22.10
2018-06-11T15:05:10.853Z,22.10
2018-06-11T15:07:38.201Z,22.00
2018-06-11T15:10:05.553Z,22.00
2018-06-11T15:12:32.892Z,22.10
2018-06-11T15:15:00.365Z,22.00
2018-06-11T15:17:27.735Z,22.10
2018-06-11T15:19:55.509Z,22.00
2018-06-11T15:22:22.872Z,21.90
2018-06-11T15:24:50.342Z,22.00
2018-06-11T15:27:17.693Z,22.20
2018-06-11T15:29:45.078Z,22.30
2018-06-11T15:32:12.497Z,22.30
2018-06-11T15:34:39.854Z,22.10
2018-06-11T15:37:07.237Z,21.90
2018-06-11T15:39:34.620Z,21.80
2018-06-11T15:42:01.994Z,21.70
2018-06-11T15:44:30.029Z,21.80
2018-06-11T15:46:57.774Z,21.70
2018-06-11T15:49:25.205Z,21.70
2018-06-11T15:51:52.589Z,21.70
2018-06-11T15:54:19.977Z,21.60
2018-06-11T15:56:47.383Z,21.50
2018-06-11T15:59:14.870Z,21.50
2018-06-11T16:01:42.278Z,21.50
2018-06-11T16:04:09.625Z,21.70
2018-06-11T16:06:37.041Z,21.60
2018-06-11T16:09:06.769Z,21.70
2018-06-11T16:11:36.482Z,21.60
2018-06-11T16:14:03.969Z,21.30
2018-06-11T16:16:31.373Z,21.40
2018-06-11T16:18:58.765Z,21.40
2018-06-11T16:21:26.274Z,21.40
2018-06-11T16:23:53.823Z,21.50
2018-06-11T16:26:21.370Z,21.40
2018-06-11T16:28:48.753Z,21.30
2018-06-11T16:31:16.107Z,21.20
2018-06-11T16:33:43.814Z,21.10
2018-06-11T16:36:11.225Z,21.20
2018-06-11T16:38:39.300Z,21.30
2018-06-11T16:41:06.678Z,21.40
2018-06-11T16:43:34.007Z,21.50
2018-06-11T16:46:01.754Z,21.30
2018-06-11T16:48:29.105Z,21.30
2018-06-11T16:50:56.465Z,21.20
2018-06-11T16:53:24.142Z,20.90
2018-06-11T16:55:51.769Z,20.90
2018-06-11T16:58:19.102Z,20.90
2018-06-11T17:00:46.664Z,21.10
2018-06-11T17:03:14.033Z,21.10
2018-06-11T17:05:41.457Z,21.10
2018-06-11T17:08:08.889Z,20.90
2018-06-11T17:10:36.250Z,20.60
2018-06-11T17:13:04.006Z,20.40
2018-06-11T17:15:31.351Z,20.40
2018-06-11T17:17:58.708Z,20.50
2018-06-11T17:20:26.242Z,20.60
2018-06-11T17:22:53.655Z,20.50
2018-06-11T17:25:21.021Z,20.40
2018-06-11T17:27:48.457Z,20.30
2018-06-11T17:30:15.868Z,20.20
2018-06-11T17:32:43.213Z,20.10
2018-06-11T17:35:10.553Z,19.90
2018-06-11T17:37:38.030Z,19.60
2018-06-11T17:40:05.534Z,19.50
2018-06-11T17:42:32.878Z,19.50
2018-06-11T17:45:00.324Z,19.60
2018-06-11T17:47:27.852Z,19.70
2018-06-11T17:49:55.251Z,19.80
2018-06-11T17:52:22.645Z,19.80
2018-06-11T17:54:50.134Z,19.80
2018-06-11T17:57:17.553Z,19.70
2018-06-11T17:59:45.118Z,19.70
2018-06-11T18:02:12.597Z,19.70
2018-06-11T18:04:40.077Z,19.70
2018-06-11T18:07:07.428Z,19.60
2018-06-11T18:09:34.770Z,19.30
2018-06-11T18:12:02.129Z,19.30
2018-06-11T18:14:29.532Z,19.30
2018-06-11T18:16:56.945Z,19.30
2018-06-11T18:19:24.337Z,19.20
2018-06-11T18:21:51.715Z,19.10
2018-06-11T18:24:19.117Z,18.90
2018-06-11T18:26:46.529Z,18.80
2018-06-11T18:29:13.977Z,18.70
2018-06-11T18:31:41.353Z,18.70
2018-06-11T18:34:08.766Z,18.40
2018-06-11T18:36:36.130Z,18.30
2018-06-11T18:39:06.685Z,18.40
2018-06-11T18:41:34.079Z,18.30
2018-06-11T18:44:01.535Z,18.30
2018-06-11T18:46:28.909Z,18.10
2018-06-11T18:48:56.319Z,18.10
2018-06-11T18:51:23.748Z,18.10
2018-06-11T18:53:51.164Z,18.00
2018-06-11T18:56:18.636Z,17.90
2018-06-11T18:58:45.998Z,17.80
2018-06-11T19:01:13.426Z,17.70
2018-06-11T19:03:40.810Z,17.40
2018-06-11T19:06:08.161Z,17.30
2018-06-11T19:08:35.494Z,17.30
2018-06-11T19:11:02.946Z,17.30
2018-06-11T19:13:30.293Z,17.30
2018-06-11T19:18:26.423Z,17.20
2018-06-11T19:20:53.818Z,17.10
2018-06-11T19:23:21.217Z,17.10
2018-06-11T19:25:48.640Z,17.00
2018-06-11T19:28:16.061Z,16.90
2018-06-11T19:30:43.467Z,16.90
2018-06-11T19:33:10.927Z,16.70
2018-06-11T19:35:38.477Z,16.70
2018-06-11T19:38:05.869Z,16.60
2018-06-11T19:40:33.245Z,16.50
2018-06-11T19:43:00.638Z,16.50
2018-06-11T19:45:28.047Z,16.50
2018-06-11T19:47:55.398Z,16.40
2018-06-11T19:50:22.787Z,16.30
2018-06-11T19:52:50.925Z,16.30
2018-06-11T19:55:18.379Z,16.30
2018-06-11T19:57:45.767Z,16.20
2018-06-11T20:00:13.117Z,16.20
2018-06-11T20:02:40.594Z,16.10
2018-06-11T20:05:08.035Z,16.00
2018-06-11T20:07:35.361Z,16.00
2018-06-11T20:10:02.826Z,15.90
2018-06-11T20:12:30.178Z,15.90
2018-06-11T20:14:57.533Z,16.00
2018-06-11T20:17:24.972Z,16.00
2018-06-11T20:19:52.341Z,16.00
2018-06-11T20:22:19.705Z,16.00
2018-06-11T20:24:47.054Z,16.00
2018-06-11T20:27:15.144Z,16.00
2018-06-11T20:29:42.461Z,16.00
2018-06-11T20:32:09.833Z,16.00
2018-06-11T20:34:37.195Z,16.10
2018-06-11T20:37:04.632Z,16.10
2018-06-11T20:39:32.035Z,16.10
2018-06-11T20:41:59.381Z,16.10
2018-06-11T20:44:26.785Z,16.10
2018-06-11T20:46:54.121Z,16.10
2018-06-11T20:49:21.473Z,16.00
2018-06-11T20:51:48.936Z,16.00
2018-06-11T20:54:16.305Z,16.00
2018-06-11T20:56:43.662Z,15.90
2018-06-11T20:59:11.028Z,15.90
2018-06-11T21:01:38.394Z,15.80
2018-06-11T21:04:05.933Z,15.70
2018-06-11T21:06:33.295Z,15.80
2018-06-11T21:09:02.105Z,15.80
2018-06-11T21:11:29.450Z,15.80
2018-06-11T21:13:56.879Z,15.80
2018-06-11T21:16:24.241Z,15.80
2018-06-11T21:18:51.654Z,15.80
2018-06-11T21:21:19.033Z,15.70
2018-06-11T21:23:46.401Z,15.70
2018-06-11T21:26:13.750Z,15.70
2018-06-11T21:28:41.089Z,15.70
2018-06-11T21:31:08.453Z,15.60
2018-06-11T21:33:35.790Z,15.70
2018-06-11T21:36:03.143Z,15.70
2018-06-11T21:38:30.505Z,15.70
2018-06-11T21:40:57.892Z,15.70
2018-06-11T21:43:25.266Z,15.60
2018-06-11T21:45:52.749Z,15.60
2018-06-11T21:48:20.189Z,15.60
2018-06-11T21:50:47.642Z,15.60
2018-06-11T21:53:15.079Z,15.70
2018-06-11T21:55:42.478Z,15.60
2018-06-11T21:58:09.854Z,15.60
2018-06-11T22:00:37.271Z,15.60
2018-06-11T22:03:04.853Z,15.60
2018-06-11T22:05:32.223Z,15.60
2018-06-11T22:07:59.578Z,15.60
2018-06-11T22:10:26.981Z,15.60
2018-06-11T22:12:54.401Z,15.60
2018-06-11T22:15:21.784Z,15.50
2018-06-11T22:17:49.176Z,15.40
2018-06-11T22:20:16.561Z,15.40
2018-06-11T22:22:43.928Z,15.30
2018-06-11T22:25:11.307Z,15.20
2018-06-11T22:27:38.656Z,15.20
2018-06-11T22:30:06.058Z,15.20
2018-06-11T22:32:33.446Z,15.20
2018-06-11T22:35:00.818Z,15.20
2018-06-11T22:37:28.179Z,15.20
2018-06-11T22:39:55.616Z,15.20
2018-06-11T22:42:23.007Z,15.10
2018-06-11T22:44:50.390Z,15.20
2018-06-11T22:47:17.726Z,15.10
2018-06-11T22:49:45.113Z,15.10
2018-06-11T22:52:12.473Z,15.10
2018-06-11T22:54:39.849Z,15.00
2018-06-11T22:57:07.213Z,15.00
2018-06-11T22:59:34.670Z,15.10
2018-06-11T23:02:02.490Z,15.20
2018-06-11T23:04:29.865Z,15.20
2018-06-11T23:06:57.230Z,15.20
2018-06-11T23:09:24.609Z,15.20
2018-06-11T23:11:51.971Z,15.10
2018-06-11T23:14:19.378Z,15.10
2018-06-11T23:16:46.762Z,15.10
2018-06-11T23:19:14.117Z,15.20
2018-06-11T23:21:41.538Z,15.10
2018-06-11T23:24:08.946Z,15.20
2018-06-11T23:26:36.275Z,15.10
2018-06-11T23:29:03.717Z,15.10
2018-06-11T23:31:31.113Z,15.00
2018-06-11T23:33:58.495Z,15.00
2018-06-11T23:36:25.849Z,15.00
2018-06-11T23:38:53.418Z,15.00
2018-06-11T23:41:20.795Z,15.00
2018-06-11T23:43:48.145Z,15.00
2018-06-11T23:46:15.482Z,14.90
2018-06-11T23:48:42.902Z,14.90
2018-06-11T23:51:10.285Z,14.90
2018-06-11T23:53:37.710Z,14.90
2018-06-11T23:56:05.073Z,14.90
2018-06-11T23:58:32.429Z,14.80
